sensor_id;sensor_type;location;lat;lon;timestamp;P1;durP1;ratioP1;P2;durP2;ratioP2
11964;SDS011;6042;41.326;19.826;2023-04-01T00:01:18;57.67;;;26.77;;
11964;SDS011;6042;41.326;19.826;2023-04-01T00:03:47;56.83;;;30.73;;
11964;SDS011;6042;41.326;19.826;2023-04-01T00:06:17;13.67;;;7.13;;
11964;SDS011;6042;41.326;19.826;2023-04-01T00:08:48;9.17;;;4.40;;
11964;SDS011;6042;41.326;19.826;2023-04-01T00:11:16;10.97;;;4.17;;
11964;SDS011;6042;41.326;19.826;2023-04-01T00:13:46;7.13;;;3.40;;
11964;SDS011;6042;41.326;19.826;2023-04-01T00:16:15;5.83;;;3.07;;
11964;SDS011;6042;41.326;19.826;2023-04-01T00:18:48;5.40;;;4.00;;
11964;SDS011;6042;41.326;19.826;2023-04-01T00:21:18;6.67;;;3.00;;
11964;SDS011;6042;41.326;19.826;2023-04-01T00:23:50;6.03;;;3.50;;
11964;SDS011;6042;41.326;19.826;2023-04-01T00:26:19;7.77;;;2.70;;
11964;SDS011;6042;41.326;19.826;2023-04-01T00:28:49;6.00;;;2.87;;
11964;SDS011;6042;41.326;19.826;2023-04-01T00:31:18;8.63;;;3.47;;
11964;SDS011;6042;41.326;19.826;2023-04-01T00:33:47;9.33;;;5.00;;
11964;SDS011;6042;41.326;19.826;2023-04-01T00:36:16;6.43;;;3.67;;
11964;SDS011;6042;41.326;19.826;2023-04-01T00:38:46;6.73;;;4.13;;
11964;SDS011;6042;41.326;19.826;2023-04-01T00:41:17;7.00;;;3.43;;
11964;SDS011;6042;41.326;19.826;2023-04-01T00:43:49;7.40;;;3.37;;
11964;SDS011;6042;41.326;19.826;2023-04-01T00:46:18;5.20;;;2.87;;
11964;SDS011;6042;41.326;19.826;2023-04-01T00:48:48;7.40;;;4.30;;
11964;SDS011;6042;41.326;19.826;2023-04-01T00:51:20;7.40;;;2.80;;
11964;SDS011;6042;41.326;19.826;2023-04-01T00:53:52;6.97;;;2.80;;
11964;SDS011;6042;41.326;19.826;2023-04-01T00:56:25;5.43;;;2.87;;
11964;SDS011;6042;41.326;19.826;2023-04-01T00:59:02;6.57;;;2.50;;
11964;SDS011;6042;41.326;19.826;2023-04-01T01:01:36;11.23;;;2.70;;
11964;SDS011;6042;41.326;19.826;2023-04-01T01:04:05;5.23;;;2.43;;
11964;SDS011;6042;41.326;19.826;2023-04-01T01:06:37;5.23;;;2.50;;
11964;SDS011;6042;41.326;19.826;2023-04-01T01:09:16;10.30;;;3.00;;
11964;SDS011;6042;41.326;19.826;2023-04-01T01:11:57;6.17;;;2.47;;
11964;SDS011;6042;41.326;19.826;2023-04-01T01:14:36;5.07;;;2.30;;
11964;SDS011;6042;41.326;19.826;2023-04-01T01:17:15;6.47;;;2.43;;
11964;SDS011;6042;41.326;19.826;2023-04-01T01:19:58;8.93;;;2.70;;
11964;SDS011;6042;41.326;19.826;2023-04-01T01:22:57;4.57;;;2.30;;
11964;SDS011;6042;41.326;19.826;2023-04-01T01:25:42;10.40;;;2.80;;
11964;SDS011;6042;41.326;19.826;2023-04-01T01:28:28;5.33;;;2.63;;
11964;SDS011;6042;41.326;19.826;2023-04-01T01:31:07;10.83;;;2.87;;
11964;SDS011;6042;41.326;19.826;2023-04-01T01:33:44;8.03;;;2.53;;
11964;SDS011;6042;41.326;19.826;2023-04-01T01:36:23;7.40;;;2.43;;
11964;SDS011;6042;41.326;19.826;2023-04-01T01:38:54;5.77;;;2.70;;
11964;SDS011;6042;41.326;19.826;2023-04-01T01:41:24;9.87;;;2.77;;
11964;SDS011;6042;41.326;19.826;2023-04-01T01:43:54;6.23;;;2.30;;
11964;SDS011;6042;41.326;19.826;2023-04-01T01:46:26;7.93;;;2.53;;
11964;SDS011;6042;41.326;19.826;2023-04-01T01:48:58;7.33;;;3.20;;
11964;SDS011;6042;41.326;19.826;2023-04-01T01:51:31;6.30;;;2.90;;
11964;SDS011;6042;41.326;19.826;2023-04-01T01:54:02;6.90;;;2.40;;
11964;SDS011;6042;41.326;19.826;2023-04-01T01:56:31;4.83;;;2.57;;
11964;SDS011;6042;41.326;19.826;2023-04-01T01:59:03;7.63;;;2.97;;
11964;SDS011;6042;41.326;19.826;2023-04-01T02:01:36;10.47;;;2.70;;
11964;SDS011;6042;41.326;19.826;2023-04-01T02:04:11;4.50;;;2.13;;
11964;SDS011;6042;41.326;19.826;2023-04-01T02:06:46;6.03;;;2.07;;
11964;SDS011;6042;41.326;19.826;2023-04-01T02:09:20;4.67;;;2.00;;
11964;SDS011;6042;41.326;19.826;2023-04-01T02:11:51;5.27;;;2.00;;
11964;SDS011;6042;41.326;19.826;2023-04-01T02:14:21;8.27;;;2.20;;
11964;SDS011;6042;41.326;19.826;2023-04-01T02:16:53;6.97;;;2.03;;
11964;SDS011;6042;41.326;19.826;2023-04-01T02:19:26;3.73;;;2.50;;
11964;SDS011;6042;41.326;19.826;2023-04-01T02:22:02;7.67;;;2.53;;
11964;SDS011;6042;41.326;19.826;2023-04-01T02:24:34;4.27;;;2.07;;
11964;SDS011;6042;41.326;19.826;2023-04-01T02:27:04;7.47;;;2.63;;
11964;SDS011;6042;41.326;19.826;2023-04-01T02:29:32;6.20;;;2.20;;
11964;SDS011;6042;41.326;19.826;2023-04-01T02:32:05;4.70;;;2.17;;
11964;SDS011;6042;41.326;19.826;2023-04-01T02:34:35;3.57;;;1.90;;
11964;SDS011;6042;41.326;19.826;2023-04-01T02:37:06;6.33;;;2.27;;
11964;SDS011;6042;41.326;19.826;2023-04-01T02:39:36;5.93;;;1.60;;
11964;SDS011;6042;41.326;19.826;2023-04-01T02:42:05;4.80;;;2.00;;
11964;SDS011;6042;41.326;19.826;2023-04-01T02:44:34;6.57;;;2.90;;
11964;SDS011;6042;41.326;19.826;2023-04-01T02:47:02;5.27;;;1.90;;
11964;SDS011;6042;41.326;19.826;2023-04-01T02:49:32;6.50;;;2.23;;
11964;SDS011;6042;41.326;19.826;2023-04-01T02:52:01;4.13;;;2.00;;
11964;SDS011;6042;41.326;19.826;2023-04-01T02:54:31;5.03;;;2.00;;
11964;SDS011;6042;41.326;19.826;2023-04-01T02:56:59;4.00;;;2.10;;
11964;SDS011;6042;41.326;19.826;2023-04-01T02:59:28;5.07;;;2.10;;
11964;SDS011;6042;41.326;19.826;2023-04-01T03:01:56;7.43;;;2.60;;
11964;SDS011;6042;41.326;19.826;2023-04-01T03:04:25;6.97;;;2.40;;
11964;SDS011;6042;41.326;19.826;2023-04-01T03:06:53;6.33;;;1.77;;
11964;SDS011;6042;41.326;19.826;2023-04-01T03:09:22;7.17;;;2.30;;
11964;SDS011;6042;41.326;19.826;2023-04-01T03:11:52;5.67;;;2.10;;
11964;SDS011;6042;41.326;19.826;2023-04-01T03:14:21;6.90;;;2.50;;
11964;SDS011;6042;41.326;19.826;2023-04-01T03:16:50;5.90;;;2.23;;
11964;SDS011;6042;41.326;19.826;2023-04-01T03:19:19;4.77;;;2.10;;
11964;SDS011;6042;41.326;19.826;2023-04-01T03:21:47;11.37;;;2.70;;
11964;SDS011;6042;41.326;19.826;2023-04-01T03:24:16;7.83;;;2.40;;
11964;SDS011;6042;41.326;19.826;2023-04-01T03:26:46;7.57;;;2.43;;
11964;SDS011;6042;41.326;19.826;2023-04-01T03:29:16;5.93;;;2.20;;
11964;SDS011;6042;41.326;19.826;2023-04-01T03:31:45;7.03;;;2.60;;
11964;SDS011;6042;41.326;19.826;2023-04-01T03:34:13;12.80;;;2.40;;
11964;SDS011;6042;41.326;19.826;2023-04-01T03:36:42;4.87;;;2.20;;
11964;SDS011;6042;41.326;19.826;2023-04-01T03:39:11;3.63;;;2.03;;
11964;SDS011;6042;41.326;19.826;2023-04-01T03:41:40;5.80;;;2.00;;
11964;SDS011;6042;41.326;19.826;2023-04-01T03:44:09;10.53;;;2.87;;
11964;SDS011;6042;41.326;19.826;2023-04-01T03:46:40;5.00;;;2.13;;
11964;SDS011;6042;41.326;19.826;2023-04-01T03:49:09;7.07;;;2.30;;
11964;SDS011;6042;41.326;19.826;2023-04-01T03:51:39;5.70;;;2.03;;
11964;SDS011;6042;41.326;19.826;2023-04-01T03:54:08;6.10;;;2.17;;
11964;SDS011;6042;41.326;19.826;2023-04-01T03:56:38;7.07;;;2.40;;
11964;SDS011;6042;41.326;19.826;2023-04-01T03:59:06;5.43;;;2.47;;
11964;SDS011;6042;41.326;19.826;2023-04-01T04:01:36;5.97;;;1.90;;
11964;SDS011;6042;41.326;19.826;2023-04-01T04:04:07;5.20;;;2.10;;
11964;SDS011;6042;41.326;19.826;2023-04-01T04:06:38;2.97;;;1.90;;
11964;SDS011;6042;41.326;19.826;2023-04-01T04:09:07;5.80;;;2.43;;
11964;SDS011;6042;41.326;19.826;2023-04-01T04:11:35;7.23;;;1.97;;
11964;SDS011;6042;41.326;19.826;2023-04-01T04:14:04;6.43;;;2.13;;
11964;SDS011;6042;41.326;19.826;2023-04-01T04:16:34;3.60;;;1.93;;
11964;SDS011;6042;41.326;19.826;2023-04-01T04:19:05;6.23;;;2.23;;
11964;SDS011;6042;41.326;19.826;2023-04-01T04:21:35;8.43;;;2.57;;
11964;SDS011;6042;41.326;19.826;2023-04-01T04:24:03;7.37;;;2.60;;
11964;SDS011;6042;41.326;19.826;2023-04-01T04:26:52;7.63;;;2.33;;
11964;SDS011;6042;41.326;19.826;2023-04-01T04:29:23;5.50;;;2.13;;
11964;SDS011;6042;41.326;19.826;2023-04-01T04:31:52;12.20;;;2.67;;
11964;SDS011;6042;41.326;19.826;2023-04-01T04:34:23;6.37;;;2.30;;
11964;SDS011;6042;41.326;19.826;2023-04-01T04:36:51;6.70;;;2.40;;
11964;SDS011;6042;41.326;19.826;2023-04-01T04:39:23;6.73;;;2.50;;
11964;SDS011;6042;41.326;19.826;2023-04-01T04:41:52;9.33;;;2.90;;
11964;SDS011;6042;41.326;19.826;2023-04-01T04:44:20;9.83;;;2.90;;
11964;SDS011;6042;41.326;19.826;2023-04-01T04:46:49;9.30;;;2.50;;
11964;SDS011;6042;41.326;19.826;2023-04-01T04:49:18;6.73;;;2.60;;
11964;SDS011;6042;41.326;19.826;2023-04-01T04:51:48;5.77;;;2.20;;
11964;SDS011;6042;41.326;19.826;2023-04-01T04:54:21;6.53;;;2.73;;
11964;SDS011;6042;41.326;19.826;2023-04-01T04:56:53;11.43;;;3.20;;
11964;SDS011;6042;41.326;19.826;2023-04-01T04:59:24;7.10;;;2.90;;
11964;SDS011;6042;41.326;19.826;2023-04-01T05:02:12;8.57;;;2.63;;
11964;SDS011;6042;41.326;19.826;2023-04-01T05:04:41;5.37;;;2.93;;
11964;SDS011;6042;41.326;19.826;2023-04-01T05:07:11;8.97;;;2.57;;
11964;SDS011;6042;41.326;19.826;2023-04-01T05:09:40;6.37;;;2.40;;
11964;SDS011;6042;41.326;19.826;2023-04-01T05:12:08;4.73;;;2.37;;
11964;SDS011;6042;41.326;19.826;2023-04-01T05:15:00;7.27;;;2.47;;
11964;SDS011;6042;41.326;19.826;2023-04-01T05:17:30;7.20;;;2.77;;
11964;SDS011;6042;41.326;19.826;2023-04-01T05:19:59;9.30;;;2.97;;
11964;SDS011;6042;41.326;19.826;2023-04-01T05:22:30;10.30;;;2.43;;
11964;SDS011;6042;41.326;19.826;2023-04-01T05:24:59;12.00;;;2.60;;
11964;SDS011;6042;41.326;19.826;2023-04-01T05:27:28;7.67;;;2.90;;
11964;SDS011;6042;41.326;19.826;2023-04-01T05:29:56;9.87;;;2.33;;
11964;SDS011;6042;41.326;19.826;2023-04-01T05:32:44;13.43;;;3.40;;
11964;SDS011;6042;41.326;19.826;2023-04-01T05:35:13;8.93;;;2.90;;
11964;SDS011;6042;41.326;19.826;2023-04-01T05:37:43;8.03;;;2.70;;
11964;SDS011;6042;41.326;19.826;2023-04-01T05:40:13;9.70;;;2.50;;
11964;SDS011;6042;41.326;19.826;2023-04-01T05:42:42;6.50;;;2.83;;
11964;SDS011;6042;41.326;19.826;2023-04-01T05:45:11;10.10;;;2.83;;
11964;SDS011;6042;41.326;19.826;2023-04-01T05:48:05;5.40;;;2.60;;
11964;SDS011;6042;41.326;19.826;2023-04-01T05:50:39;9.47;;;2.87;;
11964;SDS011;6042;41.326;19.826;2023-04-01T05:53:11;10.77;;;2.67;;
11964;SDS011;6042;41.326;19.826;2023-04-01T05:55:42;8.03;;;2.80;;
11964;SDS011;6042;41.326;19.826;2023-04-01T05:58:12;7.57;;;2.73;;
11964;SDS011;6042;41.326;19.826;2023-04-01T06:00:45;5.73;;;2.60;;
11964;SDS011;6042;41.326;19.826;2023-04-01T06:03:15;12.10;;;4.60;;
11964;SDS011;6042;41.326;19.826;2023-04-01T06:05:45;9.47;;;4.13;;
11964;SDS011;6042;41.326;19.826;2023-04-01T06:08:15;13.63;;;4.23;;
11964;SDS011;6042;41.326;19.826;2023-04-01T06:10:53;14.50;;;4.90;;
11964;SDS011;6042;41.326;19.826;2023-04-01T06:13:34;12.53;;;4.80;;
11964;SDS011;6042;41.326;19.826;2023-04-01T06:16:19;15.57;;;6.60;;
11964;SDS011;6042;41.326;19.826;2023-04-01T06:18:58;17.67;;;6.67;;
11964;SDS011;6042;41.326;19.826;2023-04-01T06:31:19;14.30;;;5.23;;
11964;SDS011;6042;41.326;19.826;2023-04-01T06:34:02;14.87;;;6.07;;
11964;SDS011;6042;41.326;19.826;2023-04-01T06:36:46;12.17;;;5.60;;
11964;SDS011;6042;41.326;19.826;2023-04-01T06:42:43;14.27;;;6.07;;
11964;SDS011;6042;41.326;19.826;2023-04-01T06:46:00;17.43;;;5.57;;
11964;SDS011;6042;41.326;19.826;2023-04-01T06:49:06;16.73;;;5.67;;
11964;SDS011;6042;41.326;19.826;2023-04-01T06:51:46;17.33;;;5.63;;
11964;SDS011;6042;41.326;19.826;2023-04-01T06:54:40;27.20;;;5.77;;
11964;SDS011;6042;41.326;19.826;2023-04-01T06:57:31;14.17;;;4.93;;
11964;SDS011;6042;41.326;19.826;2023-04-01T07:02:47;14.70;;;4.83;;
11964;SDS011;6042;41.326;19.826;2023-04-01T07:05:22;16.67;;;5.57;;
11964;SDS011;6042;41.326;19.826;2023-04-01T07:07:52;13.53;;;5.03;;
11964;SDS011;6042;41.326;19.826;2023-04-01T07:10:27;16.27;;;5.33;;
11964;SDS011;6042;41.326;19.826;2023-04-01T07:13:23;12.17;;;4.00;;
11964;SDS011;6042;41.326;19.826;2023-04-01T07:16:03;11.57;;;3.57;;
11964;SDS011;6042;41.326;19.826;2023-04-01T07:18:42;16.60;;;3.60;;
11964;SDS011;6042;41.326;19.826;2023-04-01T07:21:27;15.83;;;3.70;;
11964;SDS011;6042;41.326;19.826;2023-04-01T07:24:12;7.97;;;3.80;;
11964;SDS011;6042;41.326;19.826;2023-04-01T07:26:55;11.33;;;3.97;;
11964;SDS011;6042;41.326;19.826;2023-04-01T07:29:29;12.57;;;3.90;;
11964;SDS011;6042;41.326;19.826;2023-04-01T07:32:07;12.20;;;3.30;;
11964;SDS011;6042;41.326;19.826;2023-04-01T07:34:48;12.13;;;3.83;;
11964;SDS011;6042;41.326;19.826;2023-04-01T07:37:25;9.60;;;4.17;;
11964;SDS011;6042;41.326;19.826;2023-04-01T07:40:01;11.60;;;3.70;;
11964;SDS011;6042;41.326;19.826;2023-04-01T07:42:45;11.20;;;2.93;;
11964;SDS011;6042;41.326;19.826;2023-04-01T07:45:30;17.23;;;2.87;;
11964;SDS011;6042;41.326;19.826;2023-04-01T07:48:09;8.17;;;2.87;;
11964;SDS011;6042;41.326;19.826;2023-04-01T07:50:49;8.87;;;2.30;;
11964;SDS011;6042;41.326;19.826;2023-04-01T07:53:28;13.03;;;3.10;;
11964;SDS011;6042;41.326;19.826;2023-04-01T07:56:04;7.77;;;2.83;;
11964;SDS011;6042;41.326;19.826;2023-04-01T07:58:43;8.80;;;2.80;;
11964;SDS011;6042;41.326;19.826;2023-04-01T08:01:46;9.43;;;2.87;;
11964;SDS011;6042;41.326;19.826;2023-04-01T08:04:25;7.57;;;3.43;;
11964;SDS011;6042;41.326;19.826;2023-04-01T08:07:06;11.10;;;3.23;;
11964;SDS011;6042;41.326;19.826;2023-04-01T08:09:47;13.93;;;3.53;;
11964;SDS011;6042;41.326;19.826;2023-04-01T08:12:44;11.20;;;3.50;;
11964;SDS011;6042;41.326;19.826;2023-04-01T08:16:05;12.47;;;3.80;;
11964;SDS011;6042;41.326;19.826;2023-04-01T08:18:46;6.47;;;2.60;;
11964;SDS011;6042;41.326;19.826;2023-04-01T08:21:27;9.73;;;3.50;;
11964;SDS011;6042;41.326;19.826;2023-04-01T08:23:57;18.13;;;4.23;;
11964;SDS011;6042;41.326;19.826;2023-04-01T08:26:29;11.10;;;3.20;;
11964;SDS011;6042;41.326;19.826;2023-04-01T08:29:04;10.67;;;3.83;;
11964;SDS011;6042;41.326;19.826;2023-04-01T08:31:39;12.73;;;3.43;;
11964;SDS011;6042;41.326;19.826;2023-04-01T08:34:14;10.70;;;3.50;;
11964;SDS011;6042;41.326;19.826;2023-04-01T08:36:49;13.30;;;3.73;;
11964;SDS011;6042;41.326;19.826;2023-04-01T08:39:23;16.43;;;3.77;;
11964;SDS011;6042;41.326;19.826;2023-04-01T08:45:19;14.00;;;3.90;;
11964;SDS011;6042;41.326;19.826;2023-04-01T08:50:59;12.97;;;3.63;;
11964;SDS011;6042;41.326;19.826;2023-04-01T08:54:06;10.40;;;3.23;;
11964;SDS011;6042;41.326;19.826;2023-04-01T08:57:00;19.93;;;4.50;;
11964;SDS011;6042;41.326;19.826;2023-04-01T08:59:50;12.70;;;3.60;;
11964;SDS011;6042;41.326;19.826;2023-04-01T09:03:19;10.73;;;4.23;;
11964;SDS011;6042;41.326;19.826;2023-04-01T09:06:06;9.27;;;4.47;;
11964;SDS011;6042;41.326;19.826;2023-04-01T09:09:00;18.53;;;3.90;;
11964;SDS011;6042;41.326;19.826;2023-04-01T09:12:00;13.77;;;4.27;;
11964;SDS011;6042;41.326;19.826;2023-04-01T09:14:53;13.90;;;4.50;;
11964;SDS011;6042;41.326;19.826;2023-04-01T09:26:53;11.97;;;3.50;;
11964;SDS011;6042;41.326;19.826;2023-04-01T09:35:56;16.77;;;4.20;;
11964;SDS011;6042;41.326;19.826;2023-04-01T09:38:35;13.87;;;4.30;;
11964;SDS011;6042;41.326;19.826;2023-04-01T09:41:23;13.53;;;4.80;;
11964;SDS011;6042;41.326;19.826;2023-04-01T09:44:18;14.53;;;4.17;;
11964;SDS011;6042;41.326;19.826;2023-04-01T09:47:16;13.07;;;4.70;;
11964;SDS011;6042;41.326;19.826;2023-04-01T09:50:17;13.13;;;4.23;;
11964;SDS011;6042;41.326;19.826;2023-04-01T09:53:00;12.17;;;4.20;;
11964;SDS011;6042;41.326;19.826;2023-04-01T09:55:49;12.00;;;4.50;;
11964;SDS011;6042;41.326;19.826;2023-04-01T10:02:23;9.43;;;3.63;;
11964;SDS011;6042;41.326;19.826;2023-04-01T10:08:43;9.30;;;3.33;;
11964;SDS011;6042;41.326;19.826;2023-04-01T10:18:03;13.43;;;3.70;;
11964;SDS011;6042;41.326;19.826;2023-04-01T10:24:12;14.20;;;4.40;;
11964;SDS011;6042;41.326;19.826;2023-04-01T10:27:21;14.83;;;4.40;;
11964;SDS011;6042;41.326;19.826;2023-04-01T10:33:51;13.77;;;4.43;;
11964;SDS011;6042;41.326;19.826;2023-04-01T10:36:48;14.27;;;4.57;;
11964;SDS011;6042;41.326;19.826;2023-04-01T10:42:55;14.57;;;3.83;;
11964;SDS011;6042;41.326;19.826;2023-04-01T10:49:28;16.03;;;4.67;;
11964;SDS011;6042;41.326;19.826;2023-04-01T10:52:17;15.00;;;4.33;;
11964;SDS011;6042;41.326;19.826;2023-04-01T10:58:56;15.27;;;4.63;;
11964;SDS011;6042;41.326;19.826;2023-04-01T11:12:06;13.57;;;4.23;;
11964;SDS011;6042;41.326;19.826;2023-04-01T11:15:06;18.70;;;4.30;;
11964;SDS011;6042;41.326;19.826;2023-04-01T11:30:44;23.07;;;5.93;;
11964;SDS011;6042;41.326;19.826;2023-04-01T11:33:34;20.53;;;4.87;;
11964;SDS011;6042;41.326;19.826;2023-04-01T11:36:11;17.70;;;4.90;;
11964;SDS011;6042;41.326;19.826;2023-04-01T11:38:52;14.50;;;4.83;;
11964;SDS011;6042;41.326;19.826;2023-04-01T11:41:49;18.23;;;4.80;;
11964;SDS011;6042;41.326;19.826;2023-04-01T11:44:48;12.10;;;4.10;;
11964;SDS011;6042;41.326;19.826;2023-04-01T11:50:31;14.00;;;4.33;;
11964;SDS011;6042;41.326;19.826;2023-04-01T11:53:12;16.13;;;4.43;;
11964;SDS011;6042;41.326;19.826;2023-04-01T11:55:55;12.43;;;4.37;;
11964;SDS011;6042;41.326;19.826;2023-04-01T11:58:41;20.60;;;5.53;;
11964;SDS011;6042;41.326;19.826;2023-04-01T12:01:41;12.50;;;4.57;;
11964;SDS011;6042;41.326;19.826;2023-04-01T12:04:34;19.33;;;4.80;;
11964;SDS011;6042;41.326;19.826;2023-04-01T12:07:30;14.13;;;4.60;;
11964;SDS011;6042;41.326;19.826;2023-04-01T12:10:15;16.60;;;4.90;;
11964;SDS011;6042;41.326;19.826;2023-04-01T12:12:49;11.53;;;4.57;;
11964;SDS011;6042;41.326;19.826;2023-04-01T12:15:29;18.13;;;4.20;;
11964;SDS011;6042;41.326;19.826;2023-04-01T12:18:09;9.70;;;4.30;;
11964;SDS011;6042;41.326;19.826;2023-04-01T12:20:47;12.20;;;3.63;;
11964;SDS011;6042;41.326;19.826;2023-04-01T12:23:25;9.80;;;3.47;;
11964;SDS011;6042;41.326;19.826;2023-04-01T12:26:15;11.50;;;3.67;;
11964;SDS011;6042;41.326;19.826;2023-04-01T12:28:59;15.10;;;4.63;;
11964;SDS011;6042;41.326;19.826;2023-04-01T12:31:42;12.60;;;3.73;;
11964;SDS011;6042;41.326;19.826;2023-04-01T12:37:34;8.83;;;3.57;;
11964;SDS011;6042;41.326;19.826;2023-04-01T12:40:20;9.57;;;3.40;;
11964;SDS011;6042;41.326;19.826;2023-04-01T12:43:16;9.83;;;3.57;;
11964;SDS011;6042;41.326;19.826;2023-04-01T12:46:02;11.07;;;4.30;;
11964;SDS011;6042;41.326;19.826;2023-04-01T12:48:50;14.27;;;4.30;;
11964;SDS011;6042;41.326;19.826;2023-04-01T12:51:46;12.73;;;3.90;;
11964;SDS011;6042;41.326;19.826;2023-04-01T13:00:31;12.80;;;4.07;;
11964;SDS011;6042;41.326;19.826;2023-04-01T13:03:17;11.67;;;4.07;;
11964;SDS011;6042;41.326;19.826;2023-04-01T13:06:25;12.27;;;3.97;;
11964;SDS011;6042;41.326;19.826;2023-04-01T13:09:04;12.63;;;4.00;;
11964;SDS011;6042;41.326;19.826;2023-04-01T13:11:48;10.13;;;3.20;;
11964;SDS011;6042;41.326;19.826;2023-04-01T13:14:37;10.70;;;3.07;;
11964;SDS011;6042;41.326;19.826;2023-04-01T13:17:26;6.20;;;2.63;;
11964;SDS011;6042;41.326;19.826;2023-04-01T13:20:02;6.53;;;2.40;;
11964;SDS011;6042;41.326;19.826;2023-04-01T13:22:46;7.50;;;3.00;;
11964;SDS011;6042;41.326;19.826;2023-04-01T13:25:24;7.77;;;3.27;;
11964;SDS011;6042;41.326;19.826;2023-04-01T13:27:59;9.90;;;3.03;;
11964;SDS011;6042;41.326;19.826;2023-04-01T13:30:35;8.20;;;3.27;;
11964;SDS011;6042;41.326;19.826;2023-04-01T13:33:12;10.20;;;3.00;;
11964;SDS011;6042;41.326;19.826;2023-04-01T13:35:51;9.23;;;3.10;;
11964;SDS011;6042;41.326;19.826;2023-04-01T13:41:25;7.10;;;3.00;;
11964;SDS011;6042;41.326;19.826;2023-04-01T13:44:06;9.27;;;3.10;;
11964;SDS011;6042;41.326;19.826;2023-04-01T13:46:44;8.73;;;3.43;;
11964;SDS011;6042;41.326;19.826;2023-04-01T13:49:46;6.83;;;3.37;;
11964;SDS011;6042;41.326;19.826;2023-04-01T13:52:36;6.80;;;3.10;;
11964;SDS011;6042;41.326;19.826;2023-04-01T14:01:30;9.93;;;3.33;;
11964;SDS011;6042;41.326;19.826;2023-04-01T14:04:13;10.73;;;2.90;;
11964;SDS011;6042;41.326;19.826;2023-04-01T14:07:00;6.97;;;2.80;;
11964;SDS011;6042;41.326;19.826;2023-04-01T14:12:34;5.83;;;2.53;;
11964;SDS011;6042;41.326;19.826;2023-04-01T14:15:22;8.77;;;2.77;;
11964;SDS011;6042;41.326;19.826;2023-04-01T14:18:17;6.73;;;2.40;;
11964;SDS011;6042;41.326;19.826;2023-04-01T14:21:01;6.53;;;2.30;;
11964;SDS011;6042;41.326;19.826;2023-04-01T14:23:49;5.27;;;2.30;;
11964;SDS011;6042;41.326;19.826;2023-04-01T14:26:35;6.23;;;2.43;;
11964;SDS011;6042;41.326;19.826;2023-04-01T14:29:29;3.33;;;1.93;;
11964;SDS011;6042;41.326;19.826;2023-04-01T14:32:07;3.80;;;1.90;;
11964;SDS011;6042;41.326;19.826;2023-04-01T14:34:48;4.90;;;2.37;;
11964;SDS011;6042;41.326;19.826;2023-04-01T14:37:35;5.90;;;2.13;;
11964;SDS011;6042;41.326;19.826;2023-04-01T14:40:26;6.77;;;2.17;;
11964;SDS011;6042;41.326;19.826;2023-04-01T14:46:03;5.13;;;2.53;;
11964;SDS011;6042;41.326;19.826;2023-04-01T14:48:50;4.23;;;2.10;;
11964;SDS011;6042;41.326;19.826;2023-04-01T14:51:22;4.53;;;2.23;;
11964;SDS011;6042;41.326;19.826;2023-04-01T14:53:59;2.57;;;1.93;;
11964;SDS011;6042;41.326;19.826;2023-04-01T14:56:35;6.27;;;2.23;;
11964;SDS011;6042;41.326;19.826;2023-04-01T14:59:07;6.33;;;2.30;;
11964;SDS011;6042;41.326;19.826;2023-04-01T15:01:40;8.20;;;2.70;;
11964;SDS011;6042;41.326;19.826;2023-04-01T15:04:26;5.80;;;2.37;;
11964;SDS011;6042;41.326;19.826;2023-04-01T15:07:21;6.20;;;2.53;;
11964;SDS011;6042;41.326;19.826;2023-04-01T15:10:19;4.80;;;2.03;;
11964;SDS011;6042;41.326;19.826;2023-04-01T15:13:10;6.17;;;2.20;;
11964;SDS011;6042;41.326;19.826;2023-04-01T15:15:47;5.20;;;2.50;;
11964;SDS011;6042;41.326;19.826;2023-04-01T15:18:32;4.47;;;2.30;;
11964;SDS011;6042;41.326;19.826;2023-04-01T15:21:20;5.23;;;1.97;;
11964;SDS011;6042;41.326;19.826;2023-04-01T15:24:10;4.33;;;2.10;;
11964;SDS011;6042;41.326;19.826;2023-04-01T15:26:53;5.20;;;2.10;;
11964;SDS011;6042;41.326;19.826;2023-04-01T15:29:47;4.53;;;2.13;;
11964;SDS011;6042;41.326;19.826;2023-04-01T15:32:29;5.27;;;2.20;;
11964;SDS011;6042;41.326;19.826;2023-04-01T15:35:14;6.60;;;2.00;;
11964;SDS011;6042;41.326;19.826;2023-04-01T15:37:55;3.63;;;2.07;;
11964;SDS011;6042;41.326;19.826;2023-04-01T15:40:30;5.03;;;2.30;;
11964;SDS011;6042;41.326;19.826;2023-04-01T15:43:11;6.37;;;2.43;;
11964;SDS011;6042;41.326;19.826;2023-04-01T15:45:51;4.33;;;2.37;;
11964;SDS011;6042;41.326;19.826;2023-04-01T15:48:30;4.83;;;2.27;;
11964;SDS011;6042;41.326;19.826;2023-04-01T15:51:11;6.33;;;2.23;;
11964;SDS011;6042;41.326;19.826;2023-04-01T15:53:59;4.80;;;1.93;;
11964;SDS011;6042;41.326;19.826;2023-04-01T15:56:56;5.60;;;2.50;;
11964;SDS011;6042;41.326;19.826;2023-04-01T15:59:53;6.73;;;2.60;;
11964;SDS011;6042;41.326;19.826;2023-04-01T16:02:43;6.37;;;3.53;;
11964;SDS011;6042;41.326;19.826;2023-04-01T16:05:23;9.03;;;2.47;;
11964;SDS011;6042;41.326;19.826;2023-04-01T16:08:08;9.43;;;2.73;;
11964;SDS011;6042;41.326;19.826;2023-04-01T16:10:57;5.50;;;2.33;;
11964;SDS011;6042;41.326;19.826;2023-04-01T16:13:41;11.67;;;7.30;;
11964;SDS011;6042;41.326;19.826;2023-04-01T16:16:19;8.87;;;2.80;;
11964;SDS011;6042;41.326;19.826;2023-04-01T16:19:10;7.87;;;3.43;;
11964;SDS011;6042;41.326;19.826;2023-04-01T16:21:52;6.00;;;2.33;;
11964;SDS011;6042;41.326;19.826;2023-04-01T16:24:30;10.97;;;2.73;;
11964;SDS011;6042;41.326;19.826;2023-04-01T16:27:04;6.37;;;2.77;;
11964;SDS011;6042;41.326;19.826;2023-04-01T16:29:40;7.13;;;2.83;;
11964;SDS011;6042;41.326;19.826;2023-04-01T16:32:17;7.30;;;2.97;;
11964;SDS011;6042;41.326;19.826;2023-04-01T16:35:01;6.47;;;2.83;;
11964;SDS011;6042;41.326;19.826;2023-04-01T16:37:44;9.97;;;2.97;;
11964;SDS011;6042;41.326;19.826;2023-04-01T16:40:22;6.97;;;2.83;;
11964;SDS011;6042;41.326;19.826;2023-04-01T16:42:57;5.40;;;2.60;;
11964;SDS011;6042;41.326;19.826;2023-04-01T16:45:40;8.53;;;3.27;;
11964;SDS011;6042;41.326;19.826;2023-04-01T16:48:15;5.93;;;3.17;;
11964;SDS011;6042;41.326;19.826;2023-04-01T16:50:52;7.03;;;3.10;;
11964;SDS011;6042;41.326;19.826;2023-04-01T16:53:30;6.53;;;3.43;;
11964;SDS011;6042;41.326;19.826;2023-04-01T16:56:11;12.00;;;3.67;;
11964;SDS011;6042;41.326;19.826;2023-04-01T16:58:48;12.30;;;4.20;;
11964;SDS011;6042;41.326;19.826;2023-04-01T17:01:29;7.03;;;4.13;;
11964;SDS011;6042;41.326;19.826;2023-04-01T17:04:14;7.40;;;3.43;;
11964;SDS011;6042;41.326;19.826;2023-04-01T17:06:50;12.37;;;4.60;;
11964;SDS011;6042;41.326;19.826;2023-04-01T17:09:28;9.93;;;4.50;;
11964;SDS011;6042;41.326;19.826;2023-04-01T17:12:09;7.17;;;4.57;;
11964;SDS011;6042;41.326;19.826;2023-04-01T17:14:50;11.47;;;5.57;;
11964;SDS011;6042;41.326;19.826;2023-04-01T17:17:30;20.07;;;5.53;;
11964;SDS011;6042;41.326;19.826;2023-04-01T17:23:07;7.23;;;4.50;;
11964;SDS011;6042;41.326;19.826;2023-04-01T17:26:08;12.23;;;5.87;;
11964;SDS011;6042;41.326;19.826;2023-04-01T17:28:56;10.87;;;6.13;;
11964;SDS011;6042;41.326;19.826;2023-04-01T17:31:44;11.57;;;8.50;;
11964;SDS011;6042;41.326;19.826;2023-04-01T17:34:29;17.60;;;8.23;;
11964;SDS011;6042;41.326;19.826;2023-04-01T17:37:19;9.87;;;6.17;;
11964;SDS011;6042;41.326;19.826;2023-04-01T17:40:14;11.77;;;5.50;;
11964;SDS011;6042;41.326;19.826;2023-04-01T17:42:54;31.90;;;21.53;;
11964;SDS011;6042;41.326;19.826;2023-04-01T17:45:30;18.03;;;11.37;;
11964;SDS011;6042;41.326;19.826;2023-04-01T17:48:11;35.33;;;19.13;;
11964;SDS011;6042;41.326;19.826;2023-04-01T17:50:51;10.97;;;5.93;;
11964;SDS011;6042;41.326;19.826;2023-04-01T17:53:35;12.03;;;6.00;;
11964;SDS011;6042;41.326;19.826;2023-04-01T17:56:12;15.00;;;8.80;;
11964;SDS011;6042;41.326;19.826;2023-04-01T17:58:55;21.97;;;10.80;;